Time;durP1;ratioP1;P1;durP2;ratioP2;P2;SDS_P1;SDS_P2;PMS_P1;PMS_P2;Temp;Humidity;BMP_temperature;BMP_pressure;BME280_temperature;BME280_humidity;BME280_pressure;Samples;Min_cycle;Max_cycle;Signal;HPM_P1;HPM_P2
2023/10/23 00:00:06;;;;;;;;;;;17.90;80.30;;;;;;5052964;27;74700;-38
2023/10/23 00:02:32;;;;;;;;;;;18.00;80.30;;;;;;5051071;27;77730;-38
2023/10/23 00:04:57;;;;;;;;;;;17.90;80.20;;;;;;5054482;27;82917;-38
2023/10/23 00:07:23;;;;;;;;;;;17.90;80.20;;;;;;5056634;27;74128;-38
2023/10/23 00:09:48;;;;;;;;;;;17.90;80.10;;;;;;5048372;27;74092;-38
2023/10/23 00:12:14;;;;;;;;;;;17.90;80.10;;;;;;5049301;27;78893;-38
2023/10/23 00:14:39;;;;;;;;;;;17.90;80.30;;;;;;5055537;27;77910;-38
2023/10/23 00:17:05;;;;;;;;;;;17.90;80.30;;;;;;5054680;27;80735;-39
2023/10/23 00:19:30;;;;;;;;;;;17.90;80.30;;;;;;5055028;27;78258;-38
2023/10/23 00:21:56;;;;;;;;;;;17.90;80.40;;;;;;5057820;27;76299;-38
2023/10/23 00:24:22;;;;;;;;;;;17.90;80.30;;;;;;5049388;27;75455;-38
2023/10/23 00:26:49;;;;;;;;;;;17.90;80.30;;;;;;5052352;27;76708;-37
2023/10/23 00:29:14;;;;;;;;;;;17.80;80.30;;;;;;5049060;27;79587;-39
2023/10/23 00:31:40;;;;;;;;;;;17.80;80.30;;;;;;5056099;27;74933;-38
2023/10/23 00:34:05;;;;;;;;;;;17.80;80.30;;;;;;5049420;27;79313;-38
2023/10/23 00:36:31;;;;;;;;;;;17.80;80.30;;;;;;5053217;27;77925;-38
2023/10/23 00:38:56;;;;;;;;;;;17.80;80.20;;;;;;5053131;27;76289;-38
2023/10/23 00:41:22;;;;;;;;;;;17.80;80.20;;;;;;5053668;27;74538;-38
2023/10/23 00:43:47;;;;;;;;;;;17.80;80.10;;;;;;5045295;27;77041;-38
2023/10/23 00:46:15;;;;;;;;;;;17.80;80.00;;;;;;5049161;27;77795;-38
2023/10/23 00:48:41;;;;;;;;;;;17.80;79.90;;;;;;5046711;27;75681;-38
2023/10/23 00:51:07;;;;;;;;;;;17.80;79.80;;;;;;5044398;27;75661;-38
2023/10/23 00:53:34;;;;;;;;;;;17.80;79.80;;;;;;5043355;27;87142;-38
2023/10/23 00:56:02;;;;;;;;;;;17.80;80.40;;;;;;5046884;27;74085;-37
2023/10/23 00:58:27;;;;;;;;;;;17.80;79.80;;;;;;5052300;27;74835;-38
2023/10/23 01:00:56;;;;;;;;;;;17.80;79.60;;;;;;5050308;27;74726;-38
2023/10/23 01:03:22;;;;;;;;;;;17.80;79.70;;;;;;5045279;27;76305;-38
2023/10/23 01:05:48;;;;;;;;;;;17.70;79.60;;;;;;5051887;27;76944;-38
2023/10/23 01:08:14;;;;;;;;;;;17.80;79.70;;;;;;5053368;27;78855;-38
2023/10/23 01:10:39;;;;;;;;;;;17.80;79.70;;;;;;5047255;27;76040;-38
2023/10/23 01:13:06;;;;;;;;;;;17.80;79.80;;;;;;5057538;27;74292;-38
2023/10/23 01:15:32;;;;;;;;;;;17.70;79.70;;;;;;5051093;27;76376;-38
2023/10/23 01:17:59;;;;;;;;;;;17.70;79.60;;;;;;5057738;27;73783;-38
2023/10/23 01:20:26;;;;;;;;;;;17.70;79.60;;;;;;5053630;27;78242;-38
2023/10/23 01:22:54;;;;;;;;;;;17.70;79.80;;;;;;5053933;27;83003;-38
2023/10/23 01:25:19;;;;;;;;;;;17.70;79.80;;;;;;5059114;27;78141;-38
2023/10/23 01:27:45;;;;;;;;;;;17.70;79.90;;;;;;5057318;27;80890;-39
2023/10/23 01:30:10;;;;;;;;;;;17.60;79.80;;;;;;5058484;27;74606;-38
2023/10/23 01:32:36;;;;;;;;;;;17.70;79.90;;;;;;5053366;27;81038;-38
2023/10/23 01:35:02;;;;;;;;;;;17.60;79.90;;;;;;5057208;27;79676;-38
2023/10/23 01:37:28;;;;;;;;;;;17.70;79.90;;;;;;5054442;27;73770;-38
2023/10/23 01:39:53;;;;;;;;;;;17.70;79.80;;;;;;5058456;27;72990;-38
2023/10/23 01:42:19;;;;;;;;;;;17.70;79.70;;;;;;5049633;27;76440;-38
2023/10/23 01:44:44;;;;;;;;;;;17.60;79.60;;;;;;5056509;27;76213;-38
2023/10/23 01:47:10;;;;;;;;;;;17.60;79.60;;;;;;5040205;27;79290;-38
2023/10/23 01:49:35;;;;;;;;;;;17.70;79.40;;;;;;5059276;27;73449;-38
2023/10/23 01:52:01;;;;;;;;;;;17.70;79.30;;;;;;5060933;27;75478;-38
2023/10/23 01:54:27;;;;;;;;;;;17.70;79.10;;;;;;5055993;27;72338;-38
2023/10/23 01:56:52;;;;;;;;;;;17.60;79.10;;;;;;5058843;27;79840;-38
2023/10/23 01:59:18;;;;;;;;;;;17.60;79.20;;;;;;5057946;27;74289;-38
2023/10/23 02:01:43;;;;;;;;;;;17.60;79.20;;;;;;5053695;27;78775;-38
2023/10/23 02:04:09;;;;;;;;;;;17.60;79.10;;;;;;5060095;27;72760;-38
2023/10/23 02:06:34;;;;;;;;;;;17.60;79.00;;;;;;5056149;27;73277;-38
2023/10/23 02:09:00;;;;;;;;;;;17.60;79.00;;;;;;5056799;27;76234;-38
2023/10/23 02:11:25;;;;;;;;;;;17.60;79.00;;;;;;5051885;27;75471;-38
2023/10/23 02:13:51;;;;;;;;;;;17.50;78.90;;;;;;5055371;27;75208;-38
2023/10/23 02:16:17;;;;;;;;;;;17.60;78.90;;;;;;5057596;27;74287;-38
2023/10/23 02:18:42;;;;;;;;;;;17.50;78.90;;;;;;5053155;27;76540;-38
2023/10/23 02:21:08;;;;;;;;;;;17.50;78.90;;;;;;5058124;27;82449;-38
2023/10/23 02:23:33;;;;;;;;;;;17.50;78.90;;;;;;5056355;27;74973;-38
2023/10/23 02:25:59;;;;;;;;;;;17.50;78.90;;;;;;5041519;27;75385;-38
2023/10/23 02:28:25;;;;;;;;;;;17.50;78.70;;;;;;5053237;27;83044;-38
2023/10/23 02:30:51;;;;;;;;;;;17.50;78.60;;;;;;5054880;27;75572;-38
2023/10/23 02:33:16;;;;;;;;;;;17.50;78.80;;;;;;5051949;27;74899;-38
2023/10/23 02:35:42;;;;;;;;;;;17.50;78.70;;;;;;5052567;27;76465;-38
2023/10/23 02:38:08;;;;;;;;;;;17.50;78.70;;;;;;5059602;27;76275;-38
2023/10/23 02:40:33;;;;;;;;;;;17.50;78.70;;;;;;5050261;27;74386;-38
2023/10/23 02:42:59;;;;;;;;;;;17.40;78.60;;;;;;5059788;27;73495;-38
2023/10/23 02:45:24;;;;;;;;;;;17.50;79.30;;;;;;5035624;27;78676;-38
2023/10/23 02:47:50;;;;;;;;;;;17.50;79.30;;;;;;5057774;27;76571;-38
2023/10/23 02:50:15;;;;;;;;;;;17.40;78.50;;;;;;5051580;27;81402;-38
2023/10/23 02:52:41;;;;;;;;;;;17.40;78.60;;;;;;5059301;27;80176;-38
2023/10/23 02:55:06;;;;;;;;;;;17.40;78.60;;;;;;5059061;27;74551;-38
2023/10/23 02:57:32;;;;;;;;;;;17.40;78.70;;;;;;5050719;27;73794;-38
2023/10/23 02:59:58;;;;;;;;;;;17.40;78.50;;;;;;5053728;27;76862;-38
2023/10/23 03:02:23;;;;;;;;;;;17.40;78.50;;;;;;5058097;27;74203;-38
2023/10/23 03:04:49;;;;;;;;;;;17.40;78.40;;;;;;5057708;27;72130;-38
2023/10/23 03:07:14;;;;;;;;;;;17.40;78.40;;;;;;5052283;27;74792;-38
2023/10/23 03:09:40;;;;;;;;;;;17.40;78.40;;;;;;5056840;27;79389;-38
2023/10/23 03:12:05;;;;;;;;;;;17.30;78.40;;;;;;5054302;27;72141;-38
2023/10/23 03:14:31;;;;;;;;;;;17.40;78.40;;;;;;5057767;27;77112;-38
2023/10/23 03:16:57;;;;;;;;;;;17.30;78.40;;;;;;5051231;27;73309;-38
2023/10/23 03:19:25;;;;;;;;;;;17.30;78.40;;;;;;5047037;27;74324;-38
2023/10/23 03:21:51;;;;;;;;;;;17.30;78.40;;;;;;5030345;27;78803;-37
2023/10/23 03:24:17;;;;;;;;;;;17.30;78.40;;;;;;5032474;27;76036;-38
2023/10/23 03:26:42;;;;;;;;;;;17.30;78.40;;;;;;5036567;27;73546;-38
2023/10/23 03:29:08;;;;;;;;;;;17.30;78.30;;;;;;5035871;27;74562;-38
2023/10/23 03:31:34;;;;;;;;;;;17.30;78.40;;;;;;5021804;27;74794;-38
2023/10/23 03:34:00;;;;;;;;;;;17.30;78.40;;;;;;5036222;27;77623;-38
2023/10/23 03:36:26;;;;;;;;;;;17.30;78.40;;;;;;5037029;27;77250;-38
2023/10/23 03:38:51;;;;;;;;;;;17.30;78.20;;;;;;5040980;27;74130;-38
2023/10/23 03:41:17;;;;;;;;;;;17.30;78.20;;;;;;5034428;27;76173;-38
2023/10/23 03:43:42;;;;;;;;;;;17.20;78.20;;;;;;5034680;27;76578;-38
2023/10/23 03:46:08;;;;;;;;;;;17.30;78.20;;;;;;5035823;27;79783;-38
2023/10/23 03:48:35;;;;;;;;;;;17.30;78.20;;;;;;5037565;27;75602;-38
2023/10/23 03:51:01;;;;;;;;;;;17.20;78.20;;;;;;5037404;27;74479;-38
2023/10/23 03:53:26;;;;;;;;;;;17.30;78.20;;;;;;5036834;27;79569;-38
2023/10/23 03:55:52;;;;;;;;;;;17.20;78.10;;;;;;5036495;27;76626;-38
2023/10/23 03:58:17;;;;;;;;;;;17.20;78.20;;;;;;5034148;27;81610;-39
2023/10/23 04:00:43;;;;;;;;;;;17.20;78.20;;;;;;5028171;27;77183;-38
2023/10/23 04:03:10;;;;;;;;;;;17.20;78.10;;;;;;5034903;27;79965;-39
2023/10/23 04:05:40;;;;;;;;;;;17.20;78.20;;;;;;5032514;27;80559;-39
2023/10/23 04:08:05;;;;;;;;;;;17.10;78.20;;;;;;5040259;27;78862;-38
2023/10/23 04:10:31;;;;;;;;;;;17.20;78.20;;;;;;5030644;27;76157;-38
2023/10/23 04:12:57;;;;;;;;;;;17.20;78.30;;;;;;5027643;27;76921;-38
2023/10/23 04:15:23;;;;;;;;;;;17.20;78.00;;;;;;5027420;27;73459;-38
2023/10/23 04:17:49;;;;;;;;;;;17.20;78.00;;;;;;5037383;27;73464;-38
2023/10/23 04:20:14;;;;;;;;;;;17.20;78.10;;;;;;5043349;27;76238;-38
2023/10/23 04:22:40;;;;;;;;;;;17.20;78.00;;;;;;5053321;27;76626;-38
2023/10/23 04:25:05;;;;;;;;;;;17.20;78.10;;;;;;5046681;27;77857;-38
2023/10/23 04:27:31;;;;;;;;;;;17.10;78.00;;;;;;5057383;27;74333;-39
2023/10/23 04:29:59;;;;;;;;;;;17.20;78.00;;;;;;5048946;27;73264;-38
2023/10/23 04:32:25;;;;;;;;;;;17.20;78.00;;;;;;5054853;27;74339;-38
2023/10/23 04:34:50;;;;;;;;;;;17.10;77.90;;;;;;5050796;27;73559;-39
2023/10/23 04:37:15;;;;;;;;;;;17.10;77.90;;;;;;5058269;27;74305;-38
2023/10/23 04:39:41;;;;;;;;;;;17.10;77.90;;;;;;5051368;27;74871;-38
2023/10/23 04:42:06;;;;;;;;;;;17.10;77.90;;;;;;5056339;27;73570;-38
2023/10/23 04:44:33;;;;;;;;;;;17.10;77.90;;;;;;5049451;27;75539;-38
2023/10/23 04:46:59;;;;;;;;;;;17.10;77.90;;;;;;5050311;27;75216;-38
2023/10/23 04:49:25;;;;;;;;;;;17.10;77.90;;;;;;5052210;27;78603;-38
2023/10/23 04:51:50;;;;;;;;;;;17.10;77.80;;;;;;5052896;27;70910;-38
2023/10/23 04:54:16;;;;;;;;;;;17.10;77.80;;;;;;5050070;27;76224;-38
2023/10/23 04:56:41;;;;;;;;;;;17.10;77.80;;;;;;5049566;27;76003;-38
2023/10/23 04:59:07;;;;;;;;;;;17.10;77.80;;;;;;5056416;27;73945;-38
2023/10/23 05:01:33;;;;;;;;;;;17.10;77.80;;;;;;5055582;27;73121;-38
2023/10/23 05:03:59;;;;;;;;;;;17.10;77.80;;;;;;5051150;27;72742;-38
2023/10/23 05:06:26;;;;;;;;;;;17.00;77.80;;;;;;5048780;27;74131;-38
2023/10/23 05:08:52;;;;;;;;;;;17.00;77.80;;;;;;5053406;27;80068;-38
2023/10/23 05:11:18;;;;;;;;;;;17.00;77.60;;;;;;5050965;27;77309;-38
2023/10/23 05:13:45;;;;;;;;;;;17.00;77.60;;;;;;5049606;27;74326;-38
2023/10/23 05:16:12;;;;;;;;;;;17.00;77.70;;;;;;5049378;27;76024;-38
2023/10/23 05:18:38;;;;;;;;;;;17.00;77.60;;;;;;5050558;27;75872;-38
2023/10/23 05:21:07;;;;;;;;;;;17.00;77.60;;;;;;5058011;27;77436;-38
2023/10/23 05:23:33;;;;;;;;;;;17.00;77.50;;;;;;5051465;27;78532;-38
2023/10/23 05:25:58;;;;;;;;;;;17.00;77.50;;;;;;5053428;27;74088;-38
2023/10/23 05:28:25;;;;;;;;;;;17.00;77.50;;;;;;5047280;27;78081;-38
2023/10/23 05:30:51;;;;;;;;;;;17.00;77.60;;;;;;5055241;27;75804;-38
2023/10/23 05:33:16;;;;;;;;;;;17.00;77.60;;;;;;5048048;27;75913;-39
2023/10/23 05:35:42;;;;;;;;;;;17.00;77.60;;;;;;5052555;27;79812;-38
2023/10/23 05:38:07;;;;;;;;;;;17.00;77.50;;;;;;5053233;27;74210;-38
2023/10/23 05:40:33;;;;;;;;;;;16.90;77.50;;;;;;5056544;27;77160;-38
2023/10/23 05:42:58;;;;;;;;;;;16.90;77.60;;;;;;5048611;27;74122;-38
2023/10/23 05:45:24;;;;;;;;;;;16.90;77.40;;;;;;5052244;27;73658;-38
2023/10/23 05:47:50;;;;;;;;;;;16.90;77.50;;;;;;5051429;27;76710;-38
2023/10/23 05:50:15;;;;;;;;;;;16.90;77.40;;;;;;5054635;27;72205;-38
2023/10/23 05:52:41;;;;;;;;;;;16.90;77.50;;;;;;5037303;27;76109;-38
2023/10/23 05:55:08;;;;;;;;;;;16.90;77.50;;;;;;5050829;27;75975;-39
2023/10/23 05:57:34;;;;;;;;;;;16.90;77.50;;;;;;5058325;27;76647;-39
2023/10/23 05:59:59;;;;;;;;;;;16.90;78.30;;;;;;5054746;27;77175;-38
2023/10/23 06:02:25;;;;;;;;;;;16.90;77.50;;;;;;5057097;27;74472;-38
2023/10/23 06:04:51;;;;;;;;;;;16.90;77.30;;;;;;5047137;27;74761;-38
2023/10/23 06:07:16;;;;;;;;;;;16.90;77.40;;;;;;5052548;27;76818;-38
2023/10/23 06:09:42;;;;;;;;;;;16.90;77.40;;;;;;5052393;27;74261;-38
2023/10/23 06:12:09;;;;;;;;;;;16.80;77.40;;;;;;5057249;27;74886;-38
2023/10/23 06:14:35;;;;;;;;;;;16.80;77.40;;;;;;5054823;27;74990;-39
2023/10/23 06:17:02;;;;;;;;;;;16.80;77.40;;;;;;5056033;27;75890;-39
2023/10/23 06:19:31;;;;;;;;;;;16.80;77.40;;;;;;5044453;27;74166;-38
2023/10/23 06:21:57;;;;;;;;;;;16.80;77.40;;;;;;5031495;27;72480;-38
2023/10/23 06:24:22;;;;;;;;;;;16.80;77.30;;;;;;5034874;27;77790;-38
2023/10/23 06:26:48;;;;;;;;;;;16.80;77.30;;;;;;5034529;27;77311;-38
2023/10/23 06:29:13;;;;;;;;;;;16.80;77.30;;;;;;5040451;27;76756;-38
2023/10/23 06:31:39;;;;;;;;;;;16.80;78.00;;;;;;5035032;27;75731;-38
2023/10/23 06:34:04;;;;;;;;;;;16.80;77.30;;;;;;5038102;27;74228;-38
2023/10/23 06:36:33;;;;;;;;;;;16.80;77.30;;;;;;5034889;27;74168;-38
2023/10/23 06:38:58;;;;;;;;;;;16.80;77.20;;;;;;5034960;27;74758;-38
2023/10/23 06:41:24;;;;;;;;;;;16.80;77.20;;;;;;5038418;27;75339;-39
2023/10/23 06:43:49;;;;;;;;;;;16.80;77.10;;;;;;5034917;27;81303;-40
2023/10/23 06:46:15;;;;;;;;;;;16.80;77.10;;;;;;5024872;27;77795;-39
2023/10/23 06:48:44;;;;;;;;;;;16.80;77.10;;;;;;5038748;27;77540;-39
2023/10/23 06:51:10;;;;;;;;;;;16.80;77.10;;;;;;5031396;27;76060;-39
2023/10/23 06:53:35;;;;;;;;;;;16.80;77.00;;;;;;5034417;27;75479;-39
2023/10/23 06:56:01;;;;;;;;;;;16.80;77.00;;;;;;5032370;27;77124;-39
2023/10/23 06:58:26;;;;;;;;;;;16.80;77.00;;;;;;5027950;27;75118;-39
2023/10/23 07:00:52;;;;;;;;;;;16.80;76.90;;;;;;5033497;27;76047;-39
2023/10/23 07:03:18;;;;;;;;;;;16.80;76.90;;;;;;5030799;27;81102;-39
2023/10/23 07:05:43;;;;;;;;;;;16.80;76.80;;;;;;5037443;27;74630;-39
2023/10/23 07:08:09;;;;;;;;;;;16.80;76.90;;;;;;5027059;27;80674;-39
2023/10/23 07:10:35;;;;;;;;;;;16.80;76.90;;;;;;5028886;27;75686;-40
2023/10/23 07:13:02;;;;;;;;;;;16.80;77.00;;;;;;5026908;27;81510;-39
2023/10/23 07:15:27;;;;;;;;;;;16.80;76.90;;;;;;5035492;27;76217;-39
2023/10/23 07:17:53;;;;;;;;;;;16.80;76.90;;;;;;5029927;27;76753;-39
2023/10/23 07:20:18;;;;;;;;;;;16.80;76.80;;;;;;5050325;27;72280;-39
2023/10/23 07:22:44;;;;;;;;;;;16.80;76.70;;;;;;5051996;27;76485;-40
2023/10/23 07:25:13;;;;;;;;;;;16.80;76.70;;;;;;5050040;27;75793;-39
2023/10/23 07:27:41;;;;;;;;;;;16.80;76.80;;;;;;5053182;27;81045;-39
2023/10/23 07:30:07;;;;;;;;;;;16.80;76.70;;;;;;5048593;27;74880;-40
2023/10/23 07:32:36;;;;;;;;;;;16.80;76.70;;;;;;5059641;27;74734;-39
2023/10/23 07:35:03;;;;;;;;;;;16.80;76.70;;;;;;5037762;27;76119;-40
2023/10/23 07:37:29;;;;;;;;;;;16.80;76.70;;;;;;5055395;27;75994;-39
2023/10/23 07:39:55;;;;;;;;;;;16.80;76.70;;;;;;5049333;27;76796;-39
2023/10/23 07:42:21;;;;;;;;;;;16.80;76.70;;;;;;5057646;27;75821;-40
2023/10/23 07:44:46;;;;;;;;;;;16.80;76.60;;;;;;5056839;27;76940;-39
2023/10/23 07:47:12;;;;;;;;;;;16.80;76.80;;;;;;5054325;27;73736;-40
2023/10/23 07:49:37;;;;;;;;;;;16.80;76.70;;;;;;5057927;27;75050;-39
2023/10/23 07:52:03;;;;;;;;;;;16.80;76.60;;;;;;5054635;27;75972;-39
2023/10/23 07:54:31;;;;;;;;;;;16.90;76.70;;;;;;5054380;27;73461;-39
2023/10/23 07:56:56;;;;;;;;;;;16.90;76.60;;;;;;5047191;27;74523;-40
2023/10/23 07:59:23;;;;;;;;;;;16.90;76.70;;;;;;5060672;27;75935;-39
2023/10/23 08:01:49;;;;;;;;;;;16.90;76.70;;;;;;5039553;27;78914;-39
2023/10/23 08:04:15;;;;;;;;;;;16.90;76.80;;;;;;5057935;27;75784;-40
2023/10/23 08:06:41;;;;;;;;;;;16.90;76.70;;;;;;5052133;27;75047;-40
2023/10/23 08:09:06;;;;;;;;;;;16.90;76.70;;;;;;5044714;27;76261;-39
2023/10/23 08:11:32;;;;;;;;;;;16.90;77.10;;;;;;5058815;27;75591;-39
2023/10/23 08:13:59;;;;;;;;;;;17.00;77.10;;;;;;5060943;27;78352;-39
2023/10/23 08:16:24;;;;;;;;;;;17.00;76.90;;;;;;5057653;27;74272;-39
2023/10/23 08:18:50;;;;;;;;;;;17.00;76.80;;;;;;5050566;27;78108;-39
2023/10/23 08:21:15;;;;;;;;;;;17.00;76.90;;;;;;5052418;27;77189;-40
2023/10/23 08:23:42;;;;;;;;;;;17.00;77.00;;;;;;5052853;27;72693;-39
2023/10/23 08:26:07;;;;;;;;;;;17.00;77.20;;;;;;5054166;27;79278;-39
2023/10/23 08:28:33;;;;;;;;;;;17.10;77.10;;;;;;5049398;27;73666;-39
2023/10/23 08:30:58;;;;;;;;;;;17.10;77.10;;;;;;5055067;27;76957;-39
2023/10/23 08:33:24;;;;;;;;;;;17.10;77.20;;;;;;5047436;27;74921;-39
2023/10/23 08:35:49;;;;;;;;;;;17.10;77.10;;;;;;5050929;27;71919;-39
2023/10/23 08:38:15;;;;;;;;;;;17.00;77.10;;;;;;5052670;27;76497;-39
2023/10/23 08:40:41;;;;;;;;;;;17.00;77.30;;;;;;5059697;27;76822;-39
2023/10/23 08:43:06;;;;;;;;;;;17.00;77.30;;;;;;5058783;27;74685;-39
2023/10/23 08:45:32;;;;;;;;;;;17.00;77.40;;;;;;5058387;27;76772;-39
2023/10/23 08:47:57;;;;;;;;;;;17.00;77.50;;;;;;5061253;27;73648;-39
2023/10/23 08:50:24;;;;;;;;;;;17.10;77.50;;;;;;5053291;27;76881;-40
2023/10/23 08:52:57;;;;;;;;;;;17.10;77.40;;;;;;5054280;27;76065;-39
2023/10/23 08:55:24;;;;;;;;;;;17.10;77.40;;;;;;5049234;27;75144;-39
2023/10/23 08:57:53;;;;;;;;;;;17.10;77.40;;;;;;5054836;27;74848;-40
2023/10/23 09:00:22;;;;;;;;;;;17.10;78.10;;;;;;5051836;27;80699;-40
2023/10/23 09:02:49;;;;;;;;;;;17.10;77.30;;;;;;5052769;27;82170;-39
2023/10/23 09:05:14;;;;;;;;;;;17.10;77.40;;;;;;5053709;27;82570;-39
2023/10/23 09:07:40;;;;;;;;;;;17.20;77.40;;;;;;5050785;27;79295;-39
2023/10/23 09:10:06;;;;;;;;;;;17.20;77.10;;;;;;5048632;27;76083;-40
2023/10/23 09:12:32;;;;;;;;;;;17.20;77.00;;;;;;5057236;27;76911;-39
2023/10/23 09:15:11;;;;;;;;;;;17.30;77.10;;;;;;5060574;27;76132;-40
2023/10/23 09:17:37;;;;;;;;;;;17.20;77.00;;;;;;5045719;27;79165;-39
2023/10/23 09:20:18;;;;;;;;;;;17.20;77.80;;;;;;5050168;27;81385;-40
2023/10/23 09:22:50;;;;;;;;;;;17.30;77.30;;;;;;5043124;27;74946;-40
2023/10/23 09:25:21;;;;;;;;;;;17.30;77.20;;;;;;5056599;27;74667;-40
2023/10/23 09:27:46;;;;;;;;;;;17.30;77.20;;;;;;5054226;27;76476;-40
2023/10/23 09:30:13;;;;;;;;;;;17.30;77.30;;;;;;5055303;27;74541;-39
2023/10/23 09:32:39;;;;;;;;;;;17.30;77.30;;;;;;5056719;27;77701;-39
2023/10/23 09:35:04;;;;;;;;;;;17.40;77.40;;;;;;5052724;27;76633;-40
2023/10/23 09:37:30;;;;;;;;;;;17.30;77.30;;;;;;5058640;27;75859;-39
2023/10/23 09:40:08;;;;;;;;;;;17.30;77.40;;;;;;5052767;27;76391;-39
2023/10/23 09:42:34;;;;;;;;;;;17.30;77.30;;;;;;5054357;27;75930;-39
2023/10/23 09:45:00;;;;;;;;;;;17.30;77.30;;;;;;5064103;27;77518;-39
2023/10/23 09:47:26;;;;;;;;;;;17.40;77.40;;;;;;5057281;27;74242;-39
2023/10/23 09:49:52;;;;;;;;;;;17.40;77.70;;;;;;5053787;27;73946;-39
2023/10/23 09:52:22;;;;;;;;;;;17.40;77.60;;;;;;5055295;27;73463;-39
2023/10/23 09:54:49;;;;;;;;;;;17.50;78.00;;;;;;5053930;27;75578;-39
2023/10/23 09:57:16;;;;;;;;;;;17.50;78.40;;;;;;5056506;27;74895;-39
2023/10/23 09:59:45;;;;;;;;;;;17.50;78.80;;;;;;5060806;27;78559;-39
2023/10/23 10:02:13;;;;;;;;;;;17.60;79.50;;;;;;5057262;27;75089;-39
2023/10/23 10:04:57;;;;;;;;;;;17.60;79.70;;;;;;5050831;27;79279;-40
2023/10/23 10:07:39;;;;;;;;;;;17.50;80.10;;;;;;5055341;27;76684;-40
2023/10/23 10:10:05;;;;;;;;;;;17.60;80.20;;;;;;5048142;27;74801;-39
2023/10/23 10:12:34;;;;;;;;;;;17.60;79.90;;;;;;5049133;27;74871;-37
2023/10/23 10:15:01;;;;;;;;;;;17.70;79.50;;;;;;5059064;27;75193;-37
2023/10/23 10:17:27;;;;;;;;;;;17.70;79.30;;;;;;5054246;27;76121;-37
2023/10/23 10:19:53;;;;;;;;;;;17.70;79.00;;;;;;5052541;27;76131;-37
2023/10/23 10:22:30;;;;;;;;;;;17.70;78.70;;;;;;5056608;27;73161;-37
2023/10/23 10:24:56;;;;;;;;;;;17.70;78.40;;;;;;5058945;27;74581;-37
2023/10/23 10:27:21;;;;;;;;;;;17.70;78.20;;;;;;5055911;27;74848;-38
2023/10/23 10:29:47;;;;;;;;;;;17.70;78.10;;;;;;5051884;27;77911;-39
2023/10/23 10:32:12;;;;;;;;;;;17.70;78.10;;;;;;5059743;27;75351;-38
2023/10/23 10:34:38;;;;;;;;;;;17.70;78.10;;;;;;5055902;27;77337;-37
2023/10/23 10:37:07;;;;;;;;;;;17.70;78.00;;;;;;5054267;27;74834;-37
2023/10/23 10:39:50;;;;;;;;;;;17.70;78.00;;;;;;5060036;27;73142;-38
2023/10/23 10:42:21;;;;;;;;;;;17.70;78.00;;;;;;5039030;27;77609;-37
2023/10/23 10:44:57;;;;;;;;;;;17.70;78.00;;;;;;5051271;27;79025;-37
2023/10/23 10:47:43;;;;;;;;;;;17.70;78.10;;;;;;5054933;27;79548;-38
2023/10/23 10:50:10;;;;;;;;;;;17.70;78.20;;;;;;5050509;27;76972;-37
2023/10/23 10:52:36;;;;;;;;;;;17.70;78.20;;;;;;5054614;27;78966;-37
2023/10/23 10:55:11;;;;;;;;;;;17.80;78.30;;;;;;5054590;27;77738;-37
2023/10/23 10:57:40;;;;;;;;;;;17.70;78.20;;;;;;5049291;27;80670;-37
2023/10/23 11:00:06;;;;;;;;;;;17.80;78.20;;;;;;5055662;27;75358;-37
2023/10/23 11:02:32;;;;;;;;;;;17.80;78.40;;;;;;5055028;27;75426;-37
2023/10/23 11:04:57;;;;;;;;;;;17.80;78.30;;;;;;5052888;27;74734;-38
2023/10/23 11:07:24;;;;;;;;;;;17.80;78.50;;;;;;5044609;27;74713;-37
2023/10/23 11:09:49;;;;;;;;;;;17.80;78.70;;;;;;5055725;27;71463;-37
2023/10/23 11:12:16;;;;;;;;;;;17.80;78.80;;;;;;5056294;27;73787;-38
2023/10/23 11:14:42;;;;;;;;;;;17.80;79.00;;;;;;5058550;27;74185;-37
2023/10/23 11:17:07;;;;;;;;;;;17.80;78.70;;;;;;5062383;27;73059;-37
2023/10/23 11:19:33;;;;;;;;;;;17.80;79.70;;;;;;5055531;27;78897;-37
2023/10/23 11:22:09;;;;;;;;;;;17.80;79.20;;;;;;5055758;27;76922;-38
2023/10/23 11:24:34;;;;;;;;;;;17.80;78.90;;;;;;5049088;27;76950;-37
2023/10/23 11:27:00;;;;;;;;;;;17.80;79.50;;;;;;5056434;27;80517;-37
2023/10/23 11:29:25;;;;;;;;;;;17.80;79.60;;;;;;5053534;27;73960;-38
2023/10/23 11:31:52;;;;;;;;;;;17.90;79.60;;;;;;5056407;27;77172;-37
2023/10/23 11:34:18;;;;;;;;;;;17.80;79.60;;;;;;5059886;27;73781;-37
2023/10/23 11:36:45;;;;;;;;;;;17.90;79.60;;;;;;5052114;27;79879;-37
2023/10/23 11:39:13;;;;;;;;;;;17.90;79.60;;;;;;5044272;27;76488;-37
2023/10/23 11:41:39;;;;;;;;;;;17.90;79.50;;;;;;5052042;27;75924;-38
2023/10/23 11:44:04;;;;;;;;;;;17.90;79.50;;;;;;5056860;27;74304;-37
2023/10/23 11:46:30;;;;;;;;;;;17.90;79.40;;;;;;5056001;27;75810;-37
2023/10/23 11:48:56;;;;;;;;;;;17.90;79.50;;;;;;5059502;27;72883;-37
2023/10/23 11:51:21;;;;;;;;;;;17.90;79.40;;;;;;5054465;27;75549;-37
2023/10/23 11:53:47;;;;;;;;;;;17.90;79.40;;;;;;5051558;27;73725;-37
2023/10/23 11:56:12;;;;;;;;;;;17.90;79.30;;;;;;5054317;27;72431;-38
2023/10/23 11:58:38;;;;;;;;;;;17.90;79.00;;;;;;5059552;27;76660;-37
2023/10/23 12:01:04;;;;;;;;;;;17.90;79.00;;;;;;5057817;27;76916;-38
2023/10/23 12:03:30;;;;;;;;;;;17.90;79.00;;;;;;5059936;27;76201;-38
2023/10/23 12:05:55;;;;;;;;;;;18.00;78.90;;;;;;5058047;27;75343;-37
2023/10/23 12:08:21;;;;;;;;;;;18.00;78.80;;;;;;5060933;27;78469;-37
2023/10/23 12:10:46;;;;;;;;;;;18.00;78.70;;;;;;5056778;27;75013;-39
2023/10/23 12:13:12;;;;;;;;;;;17.90;78.70;;;;;;5053062;27;74396;-38
2023/10/23 12:15:37;;;;;;;;;;;17.90;78.60;;;;;;5057125;27;73588;-38
2023/10/23 12:18:03;;;;;;;;;;;18.00;78.80;;;;;;5056626;27;77954;-37
2023/10/23 12:20:29;;;;;;;;;;;17.90;78.70;;;;;;5062563;27;74288;-37
2023/10/23 12:22:55;;;;;;;;;;;18.00;78.50;;;;;;5056312;27;74516;-37
2023/10/23 12:25:20;;;;;;;;;;;18.00;78.40;;;;;;5047949;27;73033;-37
2023/10/23 12:27:46;;;;;;;;;;;18.00;78.40;;;;;;5051421;27;74977;-37
2023/10/23 12:30:12;;;;;;;;;;;17.90;78.40;;;;;;5056607;27;74697;-38
2023/10/23 12:32:41;;;;;;;;;;;17.90;78.40;;;;;;5057842;27;77228;-37
2023/10/23 12:35:07;;;;;;;;;;;18.00;78.50;;;;;;5053792;27;72696;-37
2023/10/23 12:37:34;;;;;;;;;;;17.90;78.40;;;;;;5056753;27;81463;-37
2023/10/23 12:40:02;;;;;;;;;;;17.90;78.40;;;;;;5053160;27;74218;-37
2023/10/23 12:42:31;;;;;;;;;;;17.90;78.30;;;;;;5058382;27;76732;-37
2023/10/23 12:44:56;;;;;;;;;;;17.90;78.20;;;;;;5059009;27;80764;-37
2023/10/23 12:47:22;;;;;;;;;;;17.90;78.40;;;;;;5047563;27;77030;-37
2023/10/23 12:49:48;;;;;;;;;;;17.90;78.30;;;;;;5061209;27;73737;-38
2023/10/23 12:52:14;;;;;;;;;;;17.90;78.20;;;;;;5058398;27;76232;-37
2023/10/23 12:54:40;;;;;;;;;;;17.90;78.30;;;;;;5044621;27;75431;-38
2023/10/23 12:57:05;;;;;;;;;;;17.90;78.30;;;;;;5058748;27;76821;-37
2023/10/23 12:59:32;;;;;;;;;;;17.90;78.30;;;;;;5049648;27;75117;-37
2023/10/23 13:01:57;;;;;;;;;;;17.90;78.10;;;;;;5058234;27;75277;-37
2023/10/23 13:04:23;;;;;;;;;;;18.00;77.90;;;;;;5057667;27;74515;-38
2023/10/23 13:06:49;;;;;;;;;;;18.00;77.70;;;;;;5056379;27;74291;-38
2023/10/23 13:09:17;;;;;;;;;;;18.00;77.70;;;;;;5061116;27;72090;-37
2023/10/23 13:11:43;;;;;;;;;;;18.00;77.60;;;;;;5056324;27;75636;-38
2023/10/23 13:14:08;;;;;;;;;;;18.00;77.90;;;;;;5054678;27;75763;-37
2023/10/23 13:16:34;;;;;;;;;;;18.00;78.10;;;;;;5057834;27;76282;-37
2023/10/23 13:19:00;;;;;;;;;;;18.00;78.00;;;;;;5063828;27;76602;-38
2023/10/23 13:21:25;;;;;;;;;;;18.00;78.00;;;;;;5060848;27;77874;-37
2023/10/23 13:23:51;;;;;;;;;;;18.00;77.90;;;;;;5058541;27;72533;-37
2023/10/23 13:26:19;;;;;;;;;;;18.00;77.90;;;;;;5059824;27;72827;-37
2023/10/23 13:28:44;;;;;;;;;;;18.00;77.90;;;;;;5053525;27;74668;-37
2023/10/23 13:31:10;;;;;;;;;;;18.00;77.80;;;;;;5059534;27;75657;-37
2023/10/23 13:33:37;;;;;;;;;;;17.90;79.00;;;;;;5057421;27;75246;-38
2023/10/23 13:36:02;;;;;;;;;;;17.90;79.30;;;;;;5048475;27;74545;-38
2023/10/23 13:38:28;;;;;;;;;;;18.00;79.10;;;;;;5053459;27;75322;-37
2023/10/23 13:40:55;;;;;;;;;;;18.00;79.80;;;;;;5057069;27;77130;-37
2023/10/23 13:43:21;;;;;;;;;;;17.90;79.20;;;;;;5057307;27;73718;-39
2023/10/23 13:45:46;;;;;;;;;;;18.00;78.90;;;;;;5057488;27;79015;-37
2023/10/23 13:48:12;;;;;;;;;;;17.90;78.80;;;;;;5064429;27;74494;-37
2023/10/23 13:50:37;;;;;;;;;;;17.90;78.70;;;;;;5055523;27;77079;-39
2023/10/23 13:53:03;;;;;;;;;;;17.90;78.70;;;;;;5062105;27;74875;-37
2023/10/23 13:55:28;;;;;;;;;;;17.90;78.70;;;;;;5050542;27;75991;-37
2023/10/23 13:57:54;;;;;;;;;;;17.90;78.60;;;;;;5066242;27;75313;-37
2023/10/23 14:00:19;;;;;;;;;;;17.90;78.60;;;;;;5056819;27;79227;-37
2023/10/23 14:02:45;;;;;;;;;;;17.90;78.40;;;;;;5059019;27;74029;-38
2023/10/23 14:05:10;;;;;;;;;;;17.90;78.50;;;;;;5060821;27;82688;-37
2023/10/23 14:07:36;;;;;;;;;;;17.90;78.50;;;;;;5054256;27;73958;-37
2023/10/23 14:10:02;;;;;;;;;;;17.90;78.60;;;;;;5060659;27;79360;-37